THY1861 LTFM-LIRF
Flight info
| Callsign | THY1861 |
|---|---|
| Flight time | 2h 19m |
| Altitude | 36000 |
| Route | BARPE UM603 SUTIS DCT DISOR DCT ENFAR DCT RETRA DCT KATTI DCT ESODU Z924 MOPUV |
| Aircraft | B738/M-SDE2E3FGHIRWXY/LB1 |
Departure
| Time | 2026-05-04 00:15 |
|---|---|
| Airport | İstanbul Airport (LTFM) |
Arrival
| Time | 2026-05-04 02:35 |
|---|---|
| Airport | Rome–Fiumicino Leonardo da Vinci International Airport (LIRF) |
| Time | Latitude | Longitude | Altitude | Speed | Heading |
|---|---|---|---|---|---|
| 2026-05-03 23:44 | 41.26422 | 28.74117 | 333 ft | 0 kts | 101° |
| 2026-05-04 00:06 | 41.26424 | 28.74103 | 333 ft | 4 kts | 98° |
| 2026-05-04 00:06 | 41.26426 | 28.74068 | 329 ft | 4 kts | 88° |
| 2026-05-04 00:06 | 41.26422 | 28.74033 | 331 ft | 4 kts | 66° |
| 2026-05-04 00:07 | 41.26408 | 28.74008 | 329 ft | 2 kts | 23° |
| 2026-05-04 00:07 | 41.26402 | 28.74005 | 329 ft | 0 kts | 22° |
| 2026-05-04 00:09 | 41.26421 | 28.74015 | 331 ft | 8 kts | 21° |
| 2026-05-04 00:09 | 41.26479 | 28.74028 | 329 ft | 10 kts | 357° |
| 2026-05-04 00:10 | 41.26567 | 28.74025 | 332 ft | 15 kts | 359° |
| 2026-05-04 00:10 | 41.26673 | 28.74023 | 333 ft | 15 kts | 360° |
| 2026-05-04 00:10 | 41.26774 | 28.74020 | 330 ft | 14 kts | 359° |
| 2026-05-04 00:10 | 41.26870 | 28.74018 | 330 ft | 13 kts | 358° |
| 2026-05-04 00:11 | 41.26957 | 28.73994 | 332 ft | 13 kts | 311° |
| 2026-05-04 00:11 | 41.26965 | 28.73879 | 333 ft | 13 kts | 269° |
| 2026-05-04 00:11 | 41.26964 | 28.73765 | 333 ft | 12 kts | 269° |
| 2026-05-04 00:11 | 41.26961 | 28.73655 | 333 ft | 12 kts | 269° |
| 2026-05-04 00:12 | 41.26960 | 28.73547 | 333 ft | 11 kts | 270° |
| 2026-05-04 00:12 | 41.26959 | 28.73436 | 333 ft | 14 kts | 269° |
| 2026-05-04 00:12 | 41.26957 | 28.73300 | 332 ft | 15 kts | 269° |
| 2026-05-04 00:12 | 41.26956 | 28.73152 | 331 ft | 17 kts | 269° |
| 2026-05-04 00:13 | 41.26938 | 28.73007 | 329 ft | 16 kts | 229° |
| 2026-05-04 00:13 | 41.26834 | 28.72989 | 329 ft | 15 kts | 180° |
| 2026-05-04 00:13 | 41.26730 | 28.72992 | 330 ft | 15 kts | 175° |
| 2026-05-04 00:13 | 41.26630 | 28.72994 | 329 ft | 14 kts | 180° |
| 2026-05-04 00:14 | 41.26535 | 28.72996 | 332 ft | 13 kts | 178° |
| 2026-05-04 00:14 | 41.26438 | 28.72998 | 330 ft | 17 kts | 180° |
| 2026-05-04 00:14 | 41.26395 | 28.72885 | 333 ft | 16 kts | 270° |
| 2026-05-04 00:14 | 41.26434 | 28.72773 | 332 ft | 16 kts | 358° |
| 2026-05-04 00:15 | 41.26698 | 28.72768 | 332 ft | 71 kts | 359° |
| 2026-05-04 00:15 | 41.27410 | 28.72750 | 330 ft | 131 kts | 359° |
| 2026-05-04 00:15 | 41.28470 | 28.72722 | 569 ft | 163 kts | 1° |
| 2026-05-04 00:15 | 41.29593 | 28.72704 | 1438 ft | 162 kts | 359° |
| 2026-05-04 00:16 | 41.30712 | 28.72676 | 2412 ft | 159 kts | 2° |
| 2026-05-04 00:16 | 41.31891 | 28.72651 | 2835 ft | 182 kts | 3° |
| 2026-05-04 00:16 | 41.33243 | 28.72636 | 3104 ft | 203 kts | 2° |
| 2026-05-04 00:16 | 41.34690 | 28.72610 | 3561 ft | 215 kts | 0° |
| 2026-05-04 00:17 | 41.36196 | 28.71999 | 3935 ft | 241 kts | 334° |
| 2026-05-04 00:17 | 41.37456 | 28.70429 | 4663 ft | 259 kts | 308° |
| 2026-05-04 00:17 | 41.38119 | 28.68183 | 5525 ft | 270 kts | 288° |
| 2026-05-04 00:17 | 41.38258 | 28.65641 | 6324 ft | 280 kts | 275° |
| 2026-05-04 00:18 | 41.38208 | 28.63030 | 7083 ft | 284 kts | 274° |
| 2026-05-04 00:18 | 41.38129 | 28.60374 | 7814 ft | 290 kts | 269° |
| 2026-05-04 00:18 | 41.37500 | 28.57776 | 8514 ft | 304 kts | 239° |
| 2026-05-04 00:18 | 41.35996 | 28.55793 | 9264 ft | 310 kts | 209° |
| 2026-05-04 00:19 | 41.33945 | 28.54993 | 10005 ft | 309 kts | 179° |
| 2026-05-04 00:19 | 41.31778 | 28.55029 | 10485 ft | 321 kts | 175° |
| 2026-05-04 00:19 | 41.29465 | 28.55138 | 10668 ft | 344 kts | 176° |
| 2026-05-04 00:19 | 41.27000 | 28.55231 | 10885 ft | 364 kts | 176° |
| 2026-05-04 00:20 | 41.24432 | 28.55097 | 11374 ft | 375 kts | 191° |
| 2026-05-04 00:20 | 41.21954 | 28.53964 | 12098 ft | 378 kts | 201° |
| 2026-05-04 00:20 | 41.19509 | 28.52667 | 12811 ft | 381 kts | 201° |
| 2026-05-04 00:20 | 41.17028 | 28.51379 | 13462 ft | 385 kts | 201° |
| 2026-05-04 00:21 | 41.14542 | 28.50116 | 14086 ft | 389 kts | 200° |
| 2026-05-04 00:21 | 41.12004 | 28.48847 | 14701 ft | 392 kts | 200° |
| 2026-05-04 00:21 | 41.09436 | 28.47571 | 15321 ft | 395 kts | 200° |
| 2026-05-04 00:21 | 41.06858 | 28.46293 | 15898 ft | 398 kts | 200° |
| 2026-05-04 00:22 | 41.04209 | 28.45182 | 16487 ft | 400 kts | 193° |
| 2026-05-04 00:22 | 41.01479 | 28.44369 | 17098 ft | 403 kts | 191° |
| 2026-05-04 00:22 | 40.98722 | 28.43611 | 17692 ft | 406 kts | 191° |
| 2026-05-04 00:22 | 40.95955 | 28.42805 | 18277 ft | 409 kts | 192° |
| 2026-05-04 00:23 | 40.93161 | 28.41949 | 18709 ft | 415 kts | 192° |
| 2026-05-04 00:23 | 40.90484 | 28.40690 | 19092 ft | 422 kts | 210° |
| 2026-05-04 00:23 | 40.88225 | 28.38227 | 19637 ft | 422 kts | 231° |
| 2026-05-04 00:23 | 40.86631 | 28.34979 | 20159 ft | 422 kts | 248° |
| 2026-05-04 00:24 | 40.85822 | 28.31313 | 20630 ft | 422 kts | 261° |
| 2026-05-04 00:24 | 40.85299 | 28.27485 | 21107 ft | 425 kts | 262° |
| 2026-05-04 00:24 | 40.84786 | 28.23622 | 21551 ft | 429 kts | 261° |
| 2026-05-04 00:24 | 40.84234 | 28.19733 | 22013 ft | 432 kts | 260° |
| 2026-05-04 00:25 | 40.83651 | 28.15822 | 22494 ft | 434 kts | 259° |
| 2026-05-04 00:25 | 40.83055 | 28.11900 | 22939 ft | 438 kts | 260° |
| 2026-05-04 00:25 | 40.82454 | 28.07950 | 23455 ft | 438 kts | 260° |
| 2026-05-04 00:25 | 40.81855 | 28.04008 | 24065 ft | 434 kts | 259° |
| 2026-05-04 00:26 | 40.81259 | 28.00096 | 24440 ft | 437 kts | 259° |
| 2026-05-04 00:26 | 40.80661 | 27.96175 | 24667 ft | 443 kts | 259° |
| 2026-05-04 00:26 | 40.80050 | 27.92165 | 24931 ft | 448 kts | 259° |
| 2026-05-04 00:26 | 40.79447 | 27.88127 | 25275 ft | 450 kts | 261° |
| 2026-05-04 00:27 | 40.79245 | 27.84007 | 25614 ft | 451 kts | 271° |
| 2026-05-04 00:27 | 40.79382 | 27.79864 | 25950 ft | 454 kts | 273° |
| 2026-05-04 00:27 | 40.79521 | 27.75689 | 26257 ft | 456 kts | 272° |
| 2026-05-04 00:27 | 40.79604 | 27.71486 | 26563 ft | 459 kts | 271° |
| 2026-05-04 00:28 | 40.79642 | 27.67259 | 26867 ft | 462 kts | 270° |
| 2026-05-04 00:28 | 40.79670 | 27.63005 | 27163 ft | 464 kts | 270° |
| 2026-05-04 00:28 | 40.79850 | 27.58750 | 27426 ft | 467 kts | 280° |
| 2026-05-04 00:28 | 40.80616 | 27.54566 | 27722 ft | 469 kts | 287° |
| 2026-05-04 00:29 | 40.81539 | 27.50436 | 28009 ft | 471 kts | 287° |
| 2026-05-04 00:29 | 40.82497 | 27.46277 | 28271 ft | 474 kts | 287° |
| 2026-05-04 00:29 | 40.83441 | 27.42093 | 28474 ft | 478 kts | 287° |
| 2026-05-04 00:29 | 40.84365 | 27.37853 | 28719 ft | 481 kts | 286° |
| 2026-05-04 00:30 | 40.85258 | 27.33633 | 28997 ft | 483 kts | 285° |
| 2026-05-04 00:30 | 40.86149 | 27.29346 | 29252 ft | 485 kts | 285° |
| 2026-05-04 00:30 | 40.87038 | 27.25028 | 29492 ft | 488 kts | 285° |
| 2026-05-04 00:30 | 40.87927 | 27.20696 | 29782 ft | 489 kts | 285° |
| 2026-05-04 00:31 | 40.88818 | 27.16357 | 30120 ft | 489 kts | 284° |
| 2026-05-04 00:31 | 40.89707 | 27.12021 | 30456 ft | 487 kts | 284° |
| 2026-05-04 00:31 | 40.90589 | 27.07718 | 30874 ft | 484 kts | 284° |
| 2026-05-04 00:31 | 40.91464 | 27.03446 | 31292 ft | 480 kts | 285° |
| 2026-05-04 00:32 | 40.92321 | 26.99182 | 31665 ft | 478 kts | 282° |
| 2026-05-04 00:32 | 40.92638 | 26.94842 | 31916 ft | 475 kts | 265° |
| 2026-05-04 00:32 | 40.92359 | 26.90498 | 32281 ft | 472 kts | 263° |
| 2026-05-04 00:32 | 40.92048 | 26.86188 | 32619 ft | 470 kts | 263° |
| 2026-05-04 00:33 | 40.91746 | 26.81893 | 33031 ft | 466 kts | 264° |
| 2026-05-04 00:33 | 40.91197 | 26.73400 | 33676 ft | 463 kts | 265° |
| 2026-05-04 00:33 | 40.90939 | 26.69147 | 33896 ft | 464 kts | 265° |
| 2026-05-04 00:34 | 40.90686 | 26.64895 | 34144 ft | 463 kts | 265° |
| 2026-05-04 00:34 | 40.90436 | 26.60711 | 34381 ft | 462 kts | 265° |
| 2026-05-04 00:34 | 40.90182 | 26.56476 | 34581 ft | 462 kts | 265° |
| 2026-05-04 00:34 | 40.89926 | 26.52249 | 34812 ft | 460 kts | 265° |
| 2026-05-04 00:35 | 40.89668 | 26.48039 | 35056 ft | 459 kts | 265° |
| 2026-05-04 00:35 | 40.89409 | 26.43831 | 35207 ft | 460 kts | 265° |
| 2026-05-04 00:35 | 40.89147 | 26.39611 | 35345 ft | 461 kts | 265° |
| 2026-05-04 00:35 | 40.88884 | 26.35410 | 35549 ft | 460 kts | 265° |
| 2026-05-04 00:36 | 40.88620 | 26.31193 | 35751 ft | 459 kts | 265° |
| 2026-05-04 00:36 | 40.88355 | 26.26988 | 35884 ft | 460 kts | 265° |
| 2026-05-04 00:36 | 40.88075 | 26.22795 | 36017 ft | 455 kts | 265° |
| 2026-05-04 00:37 | 40.87281 | 26.14531 | 36082 ft | 453 kts | 263° |
| 2026-05-04 00:37 | 40.86434 | 26.06288 | 36088 ft | 458 kts | 264° |
| 2026-05-04 00:38 | 40.85613 | 25.97907 | 36085 ft | 461 kts | 264° |
| 2026-05-04 00:38 | 40.84706 | 25.89486 | 36076 ft | 464 kts | 263° |
| 2026-05-04 00:39 | 40.83658 | 25.81063 | 36080 ft | 464 kts | 263° |
| 2026-05-04 00:39 | 40.82610 | 25.72661 | 36086 ft | 463 kts | 263° |
| 2026-05-04 00:40 | 40.81586 | 25.64344 | 36089 ft | 461 kts | 263° |
| 2026-05-04 00:40 | 40.80556 | 25.55999 | 36100 ft | 458 kts | 263° |
| 2026-05-04 00:41 | 40.79528 | 25.47712 | 36111 ft | 456 kts | 263° |
| 2026-05-04 00:41 | 40.78503 | 25.39504 | 36116 ft | 455 kts | 263° |
| 2026-05-04 00:42 | 40.77469 | 25.31287 | 36110 ft | 454 kts | 263° |
| 2026-05-04 00:42 | 40.76429 | 25.23075 | 36129 ft | 454 kts | 263° |
| 2026-05-04 00:43 | 40.75381 | 25.14842 | 36125 ft | 455 kts | 263° |
| 2026-05-04 00:43 | 40.74326 | 25.06601 | 36130 ft | 456 kts | 263° |
| 2026-05-04 00:44 | 40.73260 | 24.98336 | 36121 ft | 458 kts | 263° |
| 2026-05-04 00:44 | 40.72190 | 24.90095 | 36131 ft | 459 kts | 263° |
| 2026-05-04 00:45 | 40.71105 | 24.81776 | 36127 ft | 460 kts | 263° |
| 2026-05-04 00:45 | 40.70994 | 24.73428 | 36140 ft | 454 kts | 282° |
| 2026-05-04 00:46 | 40.72726 | 24.65503 | 36140 ft | 450 kts | 294° |
| 2026-05-04 00:46 | 40.74964 | 24.57843 | 36143 ft | 450 kts | 294° |
| 2026-05-04 00:47 | 40.77198 | 24.50125 | 36132 ft | 450 kts | 293° |
| 2026-05-04 00:47 | 40.79395 | 24.42385 | 36130 ft | 450 kts | 293° |
| 2026-05-04 00:48 | 40.81572 | 24.34639 | 36132 ft | 449 kts | 293° |
| 2026-05-04 00:48 | 40.83731 | 24.26924 | 36135 ft | 447 kts | 293° |
| 2026-05-04 00:49 | 40.85864 | 24.19277 | 36146 ft | 446 kts | 293° |
| 2026-05-04 00:49 | 40.87997 | 24.11615 | 36136 ft | 445 kts | 293° |
| 2026-05-04 00:50 | 40.90123 | 24.03955 | 36147 ft | 443 kts | 294° |
| 2026-05-04 00:50 | 40.92239 | 23.96307 | 36154 ft | 442 kts | 293° |
| 2026-05-04 00:51 | 40.94349 | 23.88657 | 36145 ft | 442 kts | 293° |
| 2026-05-04 00:51 | 40.96452 | 23.81011 | 36146 ft | 442 kts | 293° |
| 2026-05-04 00:52 | 40.98548 | 23.73364 | 36133 ft | 441 kts | 294° |
| 2026-05-04 00:52 | 41.00624 | 23.65771 | 36145 ft | 441 kts | 294° |
| 2026-05-04 00:53 | 41.02705 | 23.58133 | 36161 ft | 440 kts | 294° |
| 2026-05-04 00:53 | 41.04430 | 23.51785 | 36160 ft | 440 kts | 294° |
| 2026-05-04 00:54 | 41.06850 | 23.42856 | 36140 ft | 440 kts | 294° |
| 2026-05-04 00:54 | 41.08564 | 23.36509 | 36152 ft | 440 kts | 294° |
| 2026-05-04 00:55 | 41.10619 | 23.28878 | 36149 ft | 439 kts | 294° |
| 2026-05-04 00:55 | 41.12664 | 23.21258 | 36158 ft | 438 kts | 294° |
| 2026-05-04 00:56 | 41.14703 | 23.13639 | 36156 ft | 438 kts | 294° |
| 2026-05-04 00:56 | 41.16722 | 23.06071 | 36158 ft | 437 kts | 295° |
| 2026-05-04 00:57 | 41.18742 | 22.98477 | 36153 ft | 436 kts | 295° |
| 2026-05-04 00:57 | 41.20757 | 22.90874 | 36155 ft | 435 kts | 294° |
| 2026-05-04 00:58 | 41.22760 | 22.83294 | 36158 ft | 434 kts | 294° |
| 2026-05-04 00:58 | 41.24752 | 22.75733 | 36144 ft | 432 kts | 295° |
| 2026-05-04 00:59 | 41.26651 | 22.68168 | 36167 ft | 430 kts | 294° |
| 2026-05-04 00:59 | 41.28484 | 22.60607 | 36177 ft | 429 kts | 294° |
| 2026-05-04 01:00 | 41.30315 | 22.53052 | 36176 ft | 429 kts | 294° |
| 2026-05-04 01:00 | 41.32145 | 22.45510 | 36144 ft | 428 kts | 294° |
| 2026-05-04 01:01 | 41.33957 | 22.38032 | 36170 ft | 427 kts | 294° |
| 2026-05-04 01:01 | 41.35774 | 22.30515 | 36186 ft | 427 kts | 294° |
| 2026-05-04 01:02 | 41.37584 | 22.22997 | 36201 ft | 425 kts | 294° |
| 2026-05-04 01:02 | 41.39388 | 22.15488 | 36201 ft | 425 kts | 294° |
| 2026-05-04 01:03 | 41.41182 | 22.07991 | 36189 ft | 425 kts | 294° |
| 2026-05-04 01:03 | 41.42971 | 22.00492 | 36187 ft | 425 kts | 294° |
| 2026-05-04 01:04 | 41.44743 | 21.93038 | 36189 ft | 424 kts | 294° |
| 2026-05-04 01:04 | 41.46520 | 21.85540 | 36202 ft | 424 kts | 294° |
| 2026-05-04 01:05 | 41.48291 | 21.78042 | 36156 ft | 424 kts | 294° |
| 2026-05-04 01:05 | 41.50057 | 21.70543 | 36190 ft | 424 kts | 294° |
| 2026-05-04 01:06 | 41.51823 | 21.63017 | 36199 ft | 425 kts | 294° |
| 2026-05-04 01:06 | 41.53589 | 21.55466 | 36200 ft | 426 kts | 294° |
| 2026-05-04 01:07 | 41.55354 | 21.47895 | 36196 ft | 428 kts | 294° |
| 2026-05-04 01:07 | 41.57115 | 21.40311 | 36208 ft | 428 kts | 294° |
| 2026-05-04 01:08 | 41.58858 | 21.32781 | 36211 ft | 427 kts | 294° |
| 2026-05-04 01:08 | 41.60612 | 21.25177 | 36213 ft | 428 kts | 293° |
| 2026-05-04 01:09 | 41.62362 | 21.17568 | 36207 ft | 429 kts | 293° |
| 2026-05-04 01:09 | 41.64105 | 21.09955 | 36218 ft | 427 kts | 293° |
| 2026-05-04 01:10 | 41.65840 | 21.02356 | 36213 ft | 427 kts | 293° |
| 2026-05-04 01:10 | 41.67569 | 20.94762 | 36214 ft | 427 kts | 293° |
| 2026-05-04 01:11 | 41.69298 | 20.87138 | 36214 ft | 428 kts | 293° |
| 2026-05-04 01:11 | 41.71014 | 20.79545 | 36178 ft | 429 kts | 293° |
| 2026-05-04 01:12 | 41.72734 | 20.71900 | 36203 ft | 428 kts | 293° |
| 2026-05-04 01:12 | 41.74446 | 20.64267 | 36197 ft | 428 kts | 293° |
| 2026-05-04 01:13 | 41.76155 | 20.56632 | 36197 ft | 428 kts | 293° |
| 2026-05-04 01:13 | 41.78372 | 20.49350 | 36219 ft | 418 kts | 303° |
| 2026-05-04 01:14 | 41.81089 | 20.42517 | 36202 ft | 417 kts | 304° |
| 2026-05-04 01:14 | 41.83807 | 20.35634 | 36203 ft | 417 kts | 303° |
| 2026-05-04 01:15 | 41.86494 | 20.28748 | 36178 ft | 417 kts | 303° |
| 2026-05-04 01:15 | 41.89171 | 20.21844 | 36178 ft | 417 kts | 303° |
| 2026-05-04 01:16 | 41.91839 | 20.14943 | 36188 ft | 417 kts | 303° |
| 2026-05-04 01:16 | 41.94495 | 20.08050 | 36178 ft | 414 kts | 303° |
| 2026-05-04 01:17 | 41.97135 | 20.01187 | 36177 ft | 412 kts | 303° |
| 2026-05-04 01:17 | 41.99752 | 19.94371 | 36180 ft | 413 kts | 303° |
| 2026-05-04 01:18 | 42.02384 | 19.87499 | 36166 ft | 413 kts | 303° |
| 2026-05-04 01:18 | 42.05012 | 19.80620 | 36164 ft | 414 kts | 303° |
| 2026-05-04 01:19 | 42.07635 | 19.73734 | 36143 ft | 414 kts | 302° |
| 2026-05-04 01:19 | 42.10254 | 19.66842 | 36154 ft | 412 kts | 302° |
| 2026-05-04 01:20 | 42.12861 | 19.59967 | 36156 ft | 413 kts | 302° |
| 2026-05-04 01:20 | 42.15470 | 19.53070 | 36146 ft | 413 kts | 302° |
| 2026-05-04 01:21 | 42.18063 | 19.46195 | 36149 ft | 414 kts | 302° |
| 2026-05-04 01:21 | 42.20668 | 19.39276 | 36126 ft | 414 kts | 302° |
| 2026-05-04 01:22 | 42.22906 | 19.32080 | 36131 ft | 422 kts | 290° |
| 2026-05-04 01:22 | 42.23850 | 19.24180 | 36137 ft | 428 kts | 283° |
| 2026-05-04 01:23 | 42.24586 | 19.16253 | 36135 ft | 428 kts | 283° |
| 2026-05-04 01:23 | 42.25338 | 19.08267 | 36119 ft | 427 kts | 283° |
| 2026-05-04 01:24 | 42.26096 | 19.00352 | 36138 ft | 425 kts | 284° |
| 2026-05-04 01:24 | 42.26858 | 18.92434 | 36135 ft | 425 kts | 284° |
| 2026-05-04 01:25 | 42.27618 | 18.84505 | 36134 ft | 426 kts | 284° |
| 2026-05-04 01:25 | 42.28364 | 18.76667 | 36101 ft | 425 kts | 283° |
| 2026-05-04 01:26 | 42.29108 | 18.68799 | 36121 ft | 424 kts | 283° |
| 2026-05-04 01:26 | 42.29837 | 18.60998 | 36136 ft | 425 kts | 283° |
| 2026-05-04 01:27 | 42.30504 | 18.53800 | 36137 ft | 425 kts | 283° |
| 2026-05-04 01:27 | 42.31139 | 18.46916 | 36133 ft | 426 kts | 283° |
| 2026-05-04 01:28 | 42.31836 | 18.39306 | 36121 ft | 428 kts | 282° |
| 2026-05-04 01:28 | 42.32568 | 18.31287 | 36136 ft | 434 kts | 282° |
| 2026-05-04 01:29 | 42.33301 | 18.23183 | 36136 ft | 440 kts | 282° |
| 2026-05-04 01:29 | 42.34039 | 18.14940 | 36136 ft | 444 kts | 282° |
| 2026-05-04 01:30 | 42.34775 | 18.06636 | 36129 ft | 446 kts | 282° |
| 2026-05-04 01:30 | 42.35508 | 17.98288 | 36130 ft | 447 kts | 282° |
| 2026-05-04 01:31 | 42.36236 | 17.89937 | 36129 ft | 447 kts | 282° |
| 2026-05-04 01:31 | 42.36958 | 17.81586 | 36126 ft | 447 kts | 282° |
| 2026-05-04 01:32 | 42.37668 | 17.73299 | 36099 ft | 446 kts | 281° |
| 2026-05-04 01:32 | 42.38376 | 17.64967 | 36120 ft | 445 kts | 281° |
| 2026-05-04 01:33 | 42.39076 | 17.56656 | 36126 ft | 444 kts | 281° |
| 2026-05-04 01:33 | 42.39770 | 17.48349 | 36128 ft | 444 kts | 281° |
| 2026-05-04 01:34 | 42.40458 | 17.40044 | 36126 ft | 444 kts | 281° |
| 2026-05-04 01:34 | 42.41135 | 17.31793 | 36118 ft | 443 kts | 281° |
| 2026-05-04 01:35 | 42.41808 | 17.23502 | 36118 ft | 443 kts | 281° |
| 2026-05-04 01:35 | 42.42476 | 17.15212 | 36121 ft | 443 kts | 281° |
| 2026-05-04 01:36 | 42.43138 | 17.06923 | 36120 ft | 443 kts | 281° |
| 2026-05-04 01:36 | 42.43795 | 16.98621 | 36118 ft | 442 kts | 280° |
| 2026-05-04 01:37 | 42.44445 | 16.90336 | 36117 ft | 442 kts | 280° |
| 2026-05-04 01:37 | 42.45088 | 16.82046 | 36118 ft | 442 kts | 280° |
| 2026-05-04 01:38 | 42.45721 | 16.73812 | 36117 ft | 442 kts | 280° |
| 2026-05-04 01:38 | 42.46353 | 16.65520 | 36105 ft | 442 kts | 280° |
| 2026-05-04 01:39 | 42.46977 | 16.57234 | 36115 ft | 442 kts | 280° |
| 2026-05-04 01:39 | 42.47595 | 16.48958 | 36117 ft | 442 kts | 280° |
| 2026-05-04 01:40 | 42.48208 | 16.40673 | 36118 ft | 442 kts | 280° |
| 2026-05-04 01:40 | 42.48814 | 16.32385 | 36102 ft | 442 kts | 279° |
| 2026-05-04 01:41 | 42.49413 | 16.24114 | 36114 ft | 441 kts | 279° |
| 2026-05-04 01:41 | 42.50004 | 16.15848 | 36115 ft | 441 kts | 279° |
| 2026-05-04 01:42 | 42.50592 | 16.07573 | 36113 ft | 440 kts | 279° |
| 2026-05-04 01:42 | 42.50758 | 15.99298 | 36106 ft | 444 kts | 271° |
| 2026-05-04 01:43 | 42.50445 | 15.90948 | 36102 ft | 444 kts | 270° |
| 2026-05-04 01:43 | 42.50111 | 15.82603 | 36113 ft | 443 kts | 271° |
| 2026-05-04 01:44 | 42.49814 | 15.74264 | 36114 ft | 443 kts | 271° |
| 2026-05-04 01:44 | 42.49534 | 15.65974 | 36107 ft | 442 kts | 271° |
| 2026-05-04 01:45 | 42.49252 | 15.57652 | 36101 ft | 442 kts | 271° |
| 2026-05-04 01:45 | 42.48817 | 15.45185 | 36101 ft | 441 kts | 271° |
| 2026-05-04 01:46 | 42.48570 | 15.38276 | 36103 ft | 441 kts | 271° |
| 2026-05-04 01:46 | 42.48266 | 15.29973 | 36108 ft | 441 kts | 270° |
| 2026-05-04 01:47 | 42.47906 | 15.20321 | 36111 ft | 441 kts | 270° |
| 2026-05-04 01:47 | 42.47590 | 15.12022 | 36102 ft | 441 kts | 270° |
| 2026-05-04 01:48 | 42.47320 | 15.05075 | 36107 ft | 441 kts | 270° |
| 2026-05-04 01:48 | 42.46995 | 14.96816 | 36108 ft | 441 kts | 270° |
| 2026-05-04 01:49 | 42.46662 | 14.88527 | 36102 ft | 441 kts | 270° |
| 2026-05-04 01:49 | 42.46323 | 14.80238 | 36103 ft | 441 kts | 270° |
| 2026-05-04 01:50 | 42.45979 | 14.72032 | 35830 ft | 430 kts | 270° |
| 2026-05-04 01:50 | 42.45809 | 14.68009 | 35330 ft | 426 kts | 270° |
| 2026-05-04 01:50 | 42.45639 | 14.63996 | 34738 ft | 426 kts | 270° |
| 2026-05-04 01:51 | 42.45468 | 14.59992 | 34151 ft | 427 kts | 270° |
| 2026-05-04 01:51 | 42.45295 | 14.55975 | 33461 ft | 427 kts | 270° |
| 2026-05-04 01:51 | 42.45120 | 14.51952 | 32791 ft | 428 kts | 270° |
| 2026-05-04 01:51 | 42.44943 | 14.47944 | 32264 ft | 425 kts | 270° |
| 2026-05-04 01:52 | 42.44769 | 14.44024 | 31816 ft | 421 kts | 270° |
| 2026-05-04 01:52 | 42.44591 | 14.40037 | 31350 ft | 417 kts | 270° |
| 2026-05-04 01:52 | 42.44323 | 14.36186 | 30890 ft | 416 kts | 263° |
| 2026-05-04 01:52 | 42.43605 | 14.32385 | 30458 ft | 417 kts | 255° |
| 2026-05-04 01:53 | 42.42503 | 14.28758 | 29974 ft | 418 kts | 246° |
| 2026-05-04 01:53 | 42.41052 | 14.25342 | 29485 ft | 416 kts | 243° |
| 2026-05-04 01:53 | 42.39583 | 14.21993 | 28997 ft | 412 kts | 243° |
| 2026-05-04 01:53 | 42.38143 | 14.18659 | 28545 ft | 408 kts | 243° |
| 2026-05-04 01:54 | 42.36731 | 14.15351 | 28074 ft | 405 kts | 243° |
| 2026-05-04 01:54 | 42.35330 | 14.12062 | 27617 ft | 401 kts | 243° |
| 2026-05-04 01:54 | 42.33941 | 14.08805 | 27167 ft | 398 kts | 243° |
| 2026-05-04 01:54 | 42.32563 | 14.05576 | 26758 ft | 395 kts | 243° |
| 2026-05-04 01:55 | 42.31207 | 14.02404 | 26342 ft | 393 kts | 243° |
| 2026-05-04 01:55 | 42.29826 | 13.99180 | 25899 ft | 390 kts | 243° |
| 2026-05-04 01:55 | 42.28487 | 13.96056 | 25479 ft | 388 kts | 243° |
| 2026-05-04 01:55 | 42.27120 | 13.92868 | 25029 ft | 386 kts | 243° |
| 2026-05-04 01:56 | 42.25794 | 13.89781 | 24603 ft | 385 kts | 243° |
| 2026-05-04 01:56 | 42.24451 | 13.86659 | 24174 ft | 383 kts | 243° |
| 2026-05-04 01:56 | 42.23110 | 13.83539 | 23733 ft | 382 kts | 243° |
| 2026-05-04 01:56 | 42.21778 | 13.80444 | 23237 ft | 380 kts | 243° |
| 2026-05-04 01:57 | 42.20450 | 13.77363 | 22793 ft | 378 kts | 242° |
| 2026-05-04 01:57 | 42.19140 | 13.74309 | 22357 ft | 375 kts | 243° |
| 2026-05-04 01:57 | 42.18056 | 13.71189 | 21922 ft | 370 kts | 251° |
| 2026-05-04 01:57 | 42.17145 | 13.67957 | 21507 ft | 367 kts | 252° |
| 2026-05-04 01:58 | 42.16272 | 13.64733 | 21085 ft | 365 kts | 252° |
| 2026-05-04 01:58 | 42.15403 | 13.61528 | 20682 ft | 363 kts | 251° |
| 2026-05-04 01:58 | 42.14525 | 13.58335 | 20270 ft | 361 kts | 251° |
| 2026-05-04 01:58 | 42.13641 | 13.55164 | 19858 ft | 360 kts | 251° |
| 2026-05-04 01:59 | 42.12758 | 13.52023 | 19453 ft | 358 kts | 250° |
| 2026-05-04 01:59 | 42.11872 | 13.48889 | 19054 ft | 357 kts | 250° |
| 2026-05-04 01:59 | 42.10989 | 13.45780 | 18646 ft | 356 kts | 250° |
| 2026-05-04 01:59 | 42.10104 | 13.42668 | 18190 ft | 355 kts | 249° |
| 2026-05-04 02:00 | 42.09225 | 13.39581 | 17873 ft | 349 kts | 250° |
| 2026-05-04 02:00 | 42.08367 | 13.36570 | 17721 ft | 340 kts | 250° |
| 2026-05-04 02:00 | 42.07531 | 13.33642 | 17567 ft | 330 kts | 250° |
| 2026-05-04 02:00 | 42.06728 | 13.30830 | 17428 ft | 322 kts | 249° |
| 2026-05-04 02:01 | 42.05927 | 13.28058 | 17258 ft | 314 kts | 247° |
| 2026-05-04 02:01 | 42.04914 | 13.25465 | 16952 ft | 312 kts | 239° |
| 2026-05-04 02:01 | 42.03763 | 13.23004 | 16671 ft | 309 kts | 238° |
| 2026-05-04 02:01 | 42.02632 | 13.20589 | 16546 ft | 300 kts | 239° |
| 2026-05-04 02:02 | 42.01556 | 13.18228 | 16409 ft | 292 kts | 239° |
| 2026-05-04 02:02 | 42.00519 | 13.15917 | 16278 ft | 285 kts | 239° |
| 2026-05-04 02:02 | 41.99517 | 13.13667 | 16145 ft | 277 kts | 241° |
| 2026-05-04 02:02 | 41.98636 | 13.11362 | 15890 ft | 277 kts | 245° |
| 2026-05-04 02:03 | 41.97830 | 13.09000 | 15660 ft | 279 kts | 245° |
| 2026-05-04 02:03 | 41.97028 | 13.06607 | 15423 ft | 284 kts | 245° |
| 2026-05-04 02:03 | 41.96217 | 13.04201 | 15154 ft | 287 kts | 245° |
| 2026-05-04 02:03 | 41.95384 | 13.01751 | 14879 ft | 290 kts | 245° |
| 2026-05-04 02:04 | 41.94536 | 12.99275 | 14621 ft | 291 kts | 245° |
| 2026-05-04 02:04 | 41.93689 | 12.96811 | 14339 ft | 290 kts | 245° |
| 2026-05-04 02:04 | 41.92842 | 12.94357 | 14073 ft | 288 kts | 244° |
| 2026-05-04 02:04 | 41.92002 | 12.91931 | 13774 ft | 286 kts | 244° |
| 2026-05-04 02:05 | 41.91167 | 12.89519 | 13488 ft | 284 kts | 245° |
| 2026-05-04 02:05 | 41.90336 | 12.87123 | 13220 ft | 281 kts | 245° |
| 2026-05-04 02:05 | 41.89514 | 12.84754 | 12956 ft | 278 kts | 244° |
| 2026-05-04 02:05 | 41.88696 | 12.82403 | 12690 ft | 276 kts | 245° |
| 2026-05-04 02:06 | 41.87889 | 12.80082 | 12439 ft | 273 kts | 245° |
| 2026-05-04 02:06 | 41.87088 | 12.77779 | 12184 ft | 271 kts | 245° |
| 2026-05-04 02:06 | 41.86305 | 12.75528 | 11928 ft | 269 kts | 244° |
| 2026-05-04 02:06 | 41.85508 | 12.73239 | 11669 ft | 266 kts | 244° |
| 2026-05-04 02:07 | 41.84738 | 12.71027 | 11432 ft | 264 kts | 244° |
| 2026-05-04 02:07 | 41.83962 | 12.68801 | 11188 ft | 263 kts | 244° |
| 2026-05-04 02:07 | 41.83178 | 12.66553 | 10949 ft | 262 kts | 244° |
| 2026-05-04 02:07 | 41.82415 | 12.64369 | 10713 ft | 262 kts | 244° |
| 2026-05-04 02:08 | 41.81643 | 12.62162 | 10475 ft | 262 kts | 245° |
| 2026-05-04 02:08 | 41.81180 | 12.59816 | 10207 ft | 263 kts | 271° |
| 2026-05-04 02:08 | 41.81651 | 12.57473 | 9983 ft | 262 kts | 299° |
| 2026-05-04 02:08 | 41.82783 | 12.55557 | 9735 ft | 263 kts | 314° |
| 2026-05-04 02:09 | 41.84093 | 12.53835 | 9475 ft | 264 kts | 315° |
| 2026-05-04 02:09 | 41.85409 | 12.52107 | 9218 ft | 265 kts | 314° |
| 2026-05-04 02:09 | 41.86723 | 12.50356 | 8969 ft | 266 kts | 314° |
| 2026-05-04 02:09 | 41.88035 | 12.48596 | 8719 ft | 267 kts | 314° |
| 2026-05-04 02:10 | 41.89339 | 12.46865 | 8465 ft | 268 kts | 318° |
| 2026-05-04 02:10 | 41.90975 | 12.45697 | 8197 ft | 269 kts | 344° |
| 2026-05-04 02:10 | 41.92787 | 12.45070 | 7982 ft | 269 kts | 345° |
| 2026-05-04 02:10 | 41.94603 | 12.44447 | 7728 ft | 269 kts | 345° |
| 2026-05-04 02:11 | 41.96407 | 12.43822 | 7478 ft | 267 kts | 345° |
| 2026-05-04 02:11 | 41.98201 | 12.43195 | 7234 ft | 265 kts | 344° |
| 2026-05-04 02:11 | 41.99980 | 12.42568 | 6983 ft | 264 kts | 344° |
| 2026-05-04 02:11 | 42.01751 | 12.41942 | 6740 ft | 262 kts | 344° |
| 2026-05-04 02:12 | 42.03511 | 12.41317 | 6493 ft | 261 kts | 344° |
| 2026-05-04 02:12 | 42.05256 | 12.40697 | 6241 ft | 259 kts | 344° |
| 2026-05-04 02:12 | 42.07016 | 12.40070 | 5872 ft | 263 kts | 344° |
| 2026-05-04 02:12 | 42.08739 | 12.39282 | 5594 ft | 261 kts | 327° |
| 2026-05-04 02:13 | 42.09925 | 12.37534 | 5339 ft | 252 kts | 291° |
| 2026-05-04 02:13 | 42.10215 | 12.35310 | 5127 ft | 243 kts | 261° |
| 2026-05-04 02:13 | 42.09711 | 12.33184 | 4912 ft | 238 kts | 237° |
| 2026-05-04 02:13 | 42.08749 | 12.31367 | 4698 ft | 240 kts | 230° |
| 2026-05-04 02:14 | 42.07695 | 12.29602 | 4470 ft | 243 kts | 230° |
| 2026-05-04 02:14 | 42.06639 | 12.27833 | 4227 ft | 242 kts | 230° |
| 2026-05-04 02:14 | 42.05592 | 12.26065 | 3994 ft | 240 kts | 231° |
| 2026-05-04 02:14 | 42.04583 | 12.24288 | 3767 ft | 238 kts | 232° |
| 2026-05-04 02:15 | 42.03589 | 12.22525 | 3549 ft | 235 kts | 232° |
| 2026-05-04 02:15 | 42.02590 | 12.20837 | 3361 ft | 227 kts | 230° |
| 2026-05-04 02:15 | 42.01398 | 12.19550 | 3106 ft | 218 kts | 198° |
| 2026-05-04 02:15 | 41.99954 | 12.19583 | 2933 ft | 205 kts | 163° |
| 2026-05-04 02:16 | 41.98646 | 12.20208 | 2758 ft | 195 kts | 161° |
| 2026-05-04 02:16 | 41.97427 | 12.20769 | 2651 ft | 180 kts | 162° |
| 2026-05-04 02:16 | 41.96247 | 12.21276 | 2424 ft | 176 kts | 163° |
| 2026-05-04 02:16 | 41.95096 | 12.21759 | 2197 ft | 173 kts | 163° |
| 2026-05-04 02:17 | 41.93968 | 12.22231 | 1990 ft | 167 kts | 163° |
| 2026-05-04 02:17 | 41.92947 | 12.22659 | 1758 ft | 158 kts | 163° |
| 2026-05-04 02:17 | 41.92081 | 12.23021 | 1584 ft | 155 kts | 163° |
| 2026-05-04 02:17 | 41.91115 | 12.23425 | 1390 ft | 154 kts | 162° |
| 2026-05-04 02:18 | 41.90093 | 12.23852 | 1189 ft | 154 kts | 162° |
| 2026-05-04 02:18 | 41.89071 | 12.24279 | 985 ft | 154 kts | 161° |
| 2026-05-04 02:18 | 41.88045 | 12.24709 | 785 ft | 155 kts | 161° |
| 2026-05-04 02:18 | 41.87013 | 12.25142 | 565 ft | 155 kts | 161° |
| 2026-05-04 02:19 | 41.85977 | 12.25568 | 368 ft | 156 kts | 160° |
| 2026-05-04 02:19 | 41.84942 | 12.26012 | 154 ft | 155 kts | 161° |
| 2026-05-04 02:19 | 41.83931 | 12.26426 | 22 ft | 143 kts | 160° |
| 2026-05-04 02:19 | 41.82966 | 12.26822 | 164 ft | 160 kts | 162° |
| 2026-05-04 02:20 | 41.81859 | 12.27273 | 946 ft | 178 kts | 161° |
| 2026-05-04 02:20 | 41.80610 | 12.27809 | 1861 ft | 198 kts | 162° |
| 2026-05-04 02:20 | 41.79233 | 12.28391 | 2390 ft | 218 kts | 163° |
| 2026-05-04 02:20 | 41.77731 | 12.28959 | 2333 ft | 231 kts | 166° |
| 2026-05-04 02:21 | 41.76107 | 12.29529 | 2143 ft | 253 kts | 164° |
| 2026-05-04 02:21 | 41.74365 | 12.30076 | 2231 ft | 261 kts | 178° |
| 2026-05-04 02:21 | 41.72573 | 12.29868 | 2274 ft | 257 kts | 189° |
| 2026-05-04 02:21 | 41.70810 | 12.29510 | 2270 ft | 255 kts | 189° |
| 2026-05-04 02:22 | 41.69063 | 12.29153 | 2270 ft | 253 kts | 189° |
| 2026-05-04 02:22 | 41.67361 | 12.28576 | 2257 ft | 254 kts | 207° |
| 2026-05-04 02:22 | 41.66035 | 12.27038 | 2152 ft | 257 kts | 236° |
| 2026-05-04 02:22 | 41.65444 | 12.24799 | 2049 ft | 260 kts | 265° |
| 2026-05-04 02:23 | 41.65768 | 12.22462 | 2106 ft | 255 kts | 296° |
| 2026-05-04 02:23 | 41.66913 | 12.20683 | 2290 ft | 257 kts | 326° |
| 2026-05-04 02:23 | 41.68595 | 12.19863 | 2479 ft | 262 kts | 355° |
| 2026-05-04 02:23 | 41.70404 | 12.20207 | 2491 ft | 267 kts | 24° |
| 2026-05-04 02:24 | 41.71956 | 12.21489 | 2506 ft | 266 kts | 37° |
| 2026-05-04 02:24 | 41.73552 | 12.22716 | 2482 ft | 265 kts | 17° |
| 2026-05-04 02:24 | 41.75334 | 12.23306 | 2497 ft | 264 kts | 9° |
| 2026-05-04 02:24 | 41.77134 | 12.23087 | 2497 ft | 262 kts | 337° |
| 2026-05-04 02:25 | 41.78785 | 12.22035 | 2503 ft | 263 kts | 333° |
| 2026-05-04 02:25 | 41.80445 | 12.20975 | 2500 ft | 264 kts | 334° |
| 2026-05-04 02:25 | 41.82112 | 12.19970 | 2485 ft | 259 kts | 336° |
| 2026-05-04 02:25 | 41.83738 | 12.19033 | 2475 ft | 249 kts | 336° |
| 2026-05-04 02:26 | 41.85320 | 12.18152 | 2561 ft | 245 kts | 336° |
| 2026-05-04 02:26 | 41.86894 | 12.17293 | 2567 ft | 243 kts | 337° |
| 2026-05-04 02:26 | 41.88444 | 12.16456 | 2572 ft | 244 kts | 337° |
| 2026-05-04 02:26 | 41.90022 | 12.15610 | 2575 ft | 244 kts | 338° |
| 2026-05-04 02:27 | 41.91600 | 12.14769 | 2580 ft | 244 kts | 338° |
| 2026-05-04 02:27 | 41.93176 | 12.13932 | 2578 ft | 244 kts | 338° |
| 2026-05-04 02:27 | 41.94756 | 12.13095 | 2581 ft | 244 kts | 338° |
| 2026-05-04 02:27 | 41.96328 | 12.12263 | 2571 ft | 240 kts | 338° |
| 2026-05-04 02:28 | 41.97847 | 12.11459 | 2562 ft | 229 kts | 338° |
| 2026-05-04 02:28 | 41.99296 | 12.10692 | 2557 ft | 221 kts | 338° |
| 2026-05-04 02:28 | 42.00725 | 12.09935 | 2570 ft | 220 kts | 338° |
| 2026-05-04 02:28 | 42.02160 | 12.09239 | 2570 ft | 219 kts | 349° |
| 2026-05-04 02:29 | 42.03615 | 12.09478 | 2572 ft | 215 kts | 29° |
| 2026-05-04 02:29 | 42.04690 | 12.10857 | 2579 ft | 218 kts | 64° |
| 2026-05-04 02:29 | 42.04860 | 12.12798 | 2584 ft | 208 kts | 109° |
| 2026-05-04 02:29 | 42.04175 | 12.14401 | 2576 ft | 191 kts | 128° |
| 2026-05-04 02:30 | 42.03409 | 12.15778 | 2561 ft | 179 kts | 128° |
| 2026-05-04 02:30 | 42.02665 | 12.17109 | 2568 ft | 178 kts | 128° |
| 2026-05-04 02:30 | 42.01911 | 12.18425 | 2565 ft | 177 kts | 134° |
| 2026-05-04 02:30 | 42.00883 | 12.19280 | 2501 ft | 174 kts | 162° |
| 2026-05-04 02:31 | 41.99731 | 12.19785 | 2498 ft | 172 kts | 162° |
| 2026-05-04 02:31 | 41.98616 | 12.20276 | 2510 ft | 166 kts | 162° |
| 2026-05-04 02:31 | 41.97530 | 12.20739 | 2529 ft | 159 kts | 163° |
| 2026-05-04 02:31 | 41.96489 | 12.21177 | 2447 ft | 158 kts | 163° |
| 2026-05-04 02:32 | 41.95441 | 12.21616 | 2265 ft | 157 kts | 163° |
| 2026-05-04 02:32 | 41.94407 | 12.22047 | 2062 ft | 155 kts | 163° |
| 2026-05-04 02:32 | 41.93373 | 12.22475 | 1845 ft | 155 kts | 164° |
| 2026-05-04 02:32 | 41.92344 | 12.22892 | 1612 ft | 154 kts | 163° |
| 2026-05-04 02:33 | 41.91316 | 12.23305 | 1397 ft | 154 kts | 162° |
| 2026-05-04 02:33 | 41.90291 | 12.23754 | 1192 ft | 155 kts | 162° |
| 2026-05-04 02:33 | 41.89262 | 12.24183 | 1008 ft | 155 kts | 162° |
| 2026-05-04 02:33 | 41.88230 | 12.24603 | 811 ft | 155 kts | 160° |
| 2026-05-04 02:34 | 41.87203 | 12.25062 | 619 ft | 156 kts | 161° |
| 2026-05-04 02:34 | 41.86168 | 12.25497 | 395 ft | 156 kts | 161° |
| 2026-05-04 02:34 | 41.85131 | 12.25930 | 188 ft | 155 kts | 162° |
| 2026-05-04 02:34 | 41.84125 | 12.26348 | 22 ft | 148 kts | 161° |
| 2026-05-04 02:35 | 41.83286 | 12.26700 | 10 ft | 96 kts | 163° |
| 2026-05-04 02:35 | 41.82855 | 12.26862 | 12 ft | 33 kts | 175° |
| 2026-05-04 02:35 | 41.82645 | 12.26851 | 9 ft | 31 kts | 192° |
| 2026-05-04 02:35 | 41.82441 | 12.26789 | 10 ft | 29 kts | 192° |
| 2026-05-04 02:36 | 41.82248 | 12.26810 | 10 ft | 27 kts | 162° |
| 2026-05-04 02:36 | 41.82072 | 12.26884 | 10 ft | 26 kts | 162° |
| 2026-05-04 02:36 | 41.81907 | 12.26951 | 10 ft | 24 kts | 168° |
| 2026-05-04 02:36 | 41.81748 | 12.26916 | 9 ft | 23 kts | 195° |
| 2026-05-04 02:37 | 41.81597 | 12.26946 | 9 ft | 22 kts | 162° |
| 2026-05-04 02:37 | 41.81452 | 12.27006 | 9 ft | 21 kts | 164° |
| 2026-05-04 02:37 | 41.81309 | 12.27054 | 11 ft | 21 kts | 163° |
| 2026-05-04 02:37 | 41.81175 | 12.27122 | 10 ft | 20 kts | 162° |
| 2026-05-04 02:38 | 41.81044 | 12.27176 | 13 ft | 20 kts | 163° |
| 2026-05-04 02:38 | 41.80915 | 12.27225 | 11 ft | 19 kts | 175° |
| 2026-05-04 02:38 | 41.80794 | 12.27173 | 12 ft | 18 kts | 228° |
| 2026-05-04 02:38 | 41.80744 | 12.27020 | 13 ft | 18 kts | 249° |
| 2026-05-04 02:39 | 41.80702 | 12.26868 | 14 ft | 17 kts | 249° |
| 2026-05-04 02:39 | 41.80675 | 12.26770 | 16 ft | 17 kts | 250° |
| 2026-05-04 02:39 | 41.80636 | 12.26626 | 14 ft | 16 kts | 250° |
| 2026-05-04 02:39 | 41.80597 | 12.26489 | 15 ft | 15 kts | 249° |
| 2026-05-04 02:40 | 41.80549 | 12.26314 | 15 ft | 15 kts | 253° |
| 2026-05-04 02:40 | 41.80528 | 12.26228 | 16 ft | 14 kts | 252° |
| 2026-05-04 02:40 | 41.80484 | 12.26069 | 15 ft | 13 kts | 248° |
| 2026-05-04 02:40 | 41.80460 | 12.25983 | 14 ft | 17 kts | 249° |
| 2026-05-04 02:41 | 41.80418 | 12.25836 | 14 ft | 17 kts | 249° |
| 2026-05-04 02:41 | 41.80376 | 12.25694 | 14 ft | 16 kts | 249° |
| 2026-05-04 02:41 | 41.80337 | 12.25557 | 15 ft | 15 kts | 250° |
| 2026-05-04 02:41 | 41.80283 | 12.25445 | 15 ft | 15 kts | 204° |
| 2026-05-04 02:42 | 41.80188 | 12.25399 | 13 ft | 14 kts | 201° |
| 2026-05-04 02:42 | 41.80150 | 12.25368 | 14 ft | 2 kts | 221° |
| 2026-05-04 02:42 | 41.80142 | 12.25358 | 13 ft | 2 kts | 226° |
| 2026-05-04 02:42 | 41.80136 | 12.25347 | 13 ft | 1 kts | 231° |
| 2026-05-04 02:43 | 41.80130 | 12.25337 | 13 ft | 1 kts | 234° |
| 2026-05-04 02:43 | 41.80125 | 12.25324 | 13 ft | 3 kts | 244° |
| 2026-05-04 02:43 | 41.80111 | 12.25247 | 13 ft | 13 kts | 251° |
| 2026-05-04 02:43 | 41.80025 | 12.25160 | 15 ft | 19 kts | 204° |
| 2026-05-04 02:44 | 41.79897 | 12.25081 | 15 ft | 20 kts | 206° |
| 2026-05-04 02:44 | 41.79802 | 12.25051 | 14 ft | 11 kts | 122° |
| 2026-05-04 02:44 | 41.79778 | 12.25121 | 15 ft | 4 kts | 115° |
| 2026-05-04 02:44 | 41.79775 | 12.25130 | 14 ft | 0 kts | 115° |